sensor_id;sensor_type;location;lat;lon;timestamp;temperature;humidity
17495;DHT22;8864;51.970;4.614;2022-12-18T00:02:23;13.40;64.40
17495;DHT22;8864;51.970;4.614;2022-12-18T00:04:50;13.40;64.30
17495;DHT22;8864;51.970;4.614;2022-12-18T00:07:18;13.40;64.30
17495;DHT22;8864;51.970;4.614;2022-12-18T00:09:45;13.40;64.30
17495;DHT22;8864;51.970;4.614;2022-12-18T00:12:12;13.40;64.30
17495;DHT22;8864;51.970;4.614;2022-12-18T00:14:39;13.40;64.30
17495;DHT22;8864;51.970;4.614;2022-12-18T00:17:06;13.40;64.30
17495;DHT22;8864;51.970;4.614;2022-12-18T00:19:33;13.40;64.30
17495;DHT22;8864;51.970;4.614;2022-12-18T00:22:00;13.40;64.30
17495;DHT22;8864;51.970;4.614;2022-12-18T00:24:28;13.40;64.30
17495;DHT22;8864;51.970;4.614;2022-12-18T00:26:55;13.40;65.10
17495;DHT22;8864;51.970;4.614;2022-12-18T00:29:22;13.40;64.30
17495;DHT22;8864;51.970;4.614;2022-12-18T00:31:48;13.40;64.30
17495;DHT22;8864;51.970;4.614;2022-12-18T00:34:15;13.40;64.30
17495;DHT22;8864;51.970;4.614;2022-12-18T00:36:42;13.40;64.20
17495;DHT22;8864;51.970;4.614;2022-12-18T00:39:11;13.40;64.20
17495;DHT22;8864;51.970;4.614;2022-12-18T00:41:39;13.40;64.20
17495;DHT22;8864;51.970;4.614;2022-12-18T00:44:24;13.40;64.20
17495;DHT22;8864;51.970;4.614;2022-12-18T00:46:50;13.40;64.20
17495;DHT22;8864;51.970;4.614;2022-12-18T00:49:19;13.40;64.20
17495;DHT22;8864;51.970;4.614;2022-12-18T00:51:46;13.30;64.00
17495;DHT22;8864;51.970;4.614;2022-12-18T00:54:13;13.40;64.20
17495;DHT22;8864;51.970;4.614;2022-12-18T00:56:42;13.30;64.00
17495;DHT22;8864;51.970;4.614;2022-12-18T00:59:09;13.30;64.00
17495;DHT22;8864;51.970;4.614;2022-12-18T01:01:35;13.40;64.10
17495;DHT22;8864;51.970;4.614;2022-12-18T01:04:03;13.40;64.10
17495;DHT22;8864;51.970;4.614;2022-12-18T01:06:30;13.30;64.00
17495;DHT22;8864;51.970;4.614;2022-12-18T01:08:57;13.30;64.00
17495;DHT22;8864;51.970;4.614;2022-12-18T01:11:24;13.30;64.00
17495;DHT22;8864;51.970;4.614;2022-12-18T01:13:53;13.30;63.90
17495;DHT22;8864;51.970;4.614;2022-12-18T01:16:20;13.30;63.90
17495;DHT22;8864;51.970;4.614;2022-12-18T01:18:49;13.30;63.90
17495;DHT22;8864;51.970;4.614;2022-12-18T01:21:17;13.30;63.90
17495;DHT22;8864;51.970;4.614;2022-12-18T01:23:44;13.30;63.90
17495;DHT22;8864;51.970;4.614;2022-12-18T01:26:13;13.30;64.00
17495;DHT22;8864;51.970;4.614;2022-12-18T01:28:40;13.30;64.60
17495;DHT22;8864;51.970;4.614;2022-12-18T01:31:18;13.30;63.90
17495;DHT22;8864;51.970;4.614;2022-12-18T01:33:45;13.30;63.90
17495;DHT22;8864;51.970;4.614;2022-12-18T01:36:17;13.30;63.90
17495;DHT22;8864;51.970;4.614;2022-12-18T01:38:44;13.30;63.90
17495;DHT22;8864;51.970;4.614;2022-12-18T01:41:11;13.30;64.60
17495;DHT22;8864;51.970;4.614;2022-12-18T01:43:48;13.30;63.90
17495;DHT22;8864;51.970;4.614;2022-12-18T01:46:17;13.30;63.90
17495;DHT22;8864;51.970;4.614;2022-12-18T01:48:45;13.30;63.80
17495;DHT22;8864;51.970;4.614;2022-12-18T01:51:13;13.30;63.80
17495;DHT22;8864;51.970;4.614;2022-12-18T01:53:42;13.30;63.80
17495;DHT22;8864;51.970;4.614;2022-12-18T01:56:13;13.30;63.80
17495;DHT22;8864;51.970;4.614;2022-12-18T01:58:47;13.30;63.80
17495;DHT22;8864;51.970;4.614;2022-12-18T02:01:17;13.30;63.90
17495;DHT22;8864;51.970;4.614;2022-12-18T02:03:44;13.30;63.80
17495;DHT22;8864;51.970;4.614;2022-12-18T02:06:16;13.30;63.80
17495;DHT22;8864;51.970;4.614;2022-12-18T02:08:52;13.30;63.90
17495;DHT22;8864;51.970;4.614;2022-12-18T02:11:30;13.30;63.80
17495;DHT22;8864;51.970;4.614;2022-12-18T02:14:04;13.30;63.80
17495;DHT22;8864;51.970;4.614;2022-12-18T02:16:39;13.30;63.80
17495;DHT22;8864;51.970;4.614;2022-12-18T02:19:18;13.20;63.70
17495;DHT22;8864;51.970;4.614;2022-12-18T02:21:54;13.20;63.70
17495;DHT22;8864;51.970;4.614;2022-12-18T02:24:32;13.20;63.70
17495;DHT22;8864;51.970;4.614;2022-12-18T02:27:04;13.20;63.70
17495;DHT22;8864;51.970;4.614;2022-12-18T02:29:35;13.20;63.70
17495;DHT22;8864;51.970;4.614;2022-12-18T02:32:06;13.20;63.70
17495;DHT22;8864;51.970;4.614;2022-12-18T02:34:37;13.20;63.70
17495;DHT22;8864;51.970;4.614;2022-12-18T02:37:07;13.20;64.00
17495;DHT22;8864;51.970;4.614;2022-12-18T02:39:37;13.20;63.70
17495;DHT22;8864;51.970;4.614;2022-12-18T02:42:06;13.20;63.90
17495;DHT22;8864;51.970;4.614;2022-12-18T02:44:33;13.20;63.90
17495;DHT22;8864;51.970;4.614;2022-12-18T02:47:01;13.20;63.90
17495;DHT22;8864;51.970;4.614;2022-12-18T02:49:34;13.20;63.90
17495;DHT22;8864;51.970;4.614;2022-12-18T02:52:07;13.30;64.00
17495;DHT22;8864;51.970;4.614;2022-12-18T02:54:50;13.20;63.90
17495;DHT22;8864;51.970;4.614;2022-12-18T02:57:23;13.20;63.90
17495;DHT22;8864;51.970;4.614;2022-12-18T02:59:58;13.20;63.80
17495;DHT22;8864;51.970;4.614;2022-12-18T03:02:33;13.20;63.90
17495;DHT22;8864;51.970;4.614;2022-12-18T03:05:07;13.20;63.70
17495;DHT22;8864;51.970;4.614;2022-12-18T03:07:39;13.20;63.80
17495;DHT22;8864;51.970;4.614;2022-12-18T03:10:13;13.20;63.80
17495;DHT22;8864;51.970;4.614;2022-12-18T03:12:44;13.20;63.80
17495;DHT22;8864;51.970;4.614;2022-12-18T03:15:17;13.20;63.70
17495;DHT22;8864;51.970;4.614;2022-12-18T03:17:48;13.20;63.80
17495;DHT22;8864;51.970;4.614;2022-12-18T03:20:19;13.20;63.60
17495;DHT22;8864;51.970;4.614;2022-12-18T03:22:50;13.20;63.60
17495;DHT22;8864;51.970;4.614;2022-12-18T03:25:19;13.20;63.50
17495;DHT22;8864;51.970;4.614;2022-12-18T03:27:51;13.20;63.50
17495;DHT22;8864;51.970;4.614;2022-12-18T03:30:19;13.20;63.40
17495;DHT22;8864;51.970;4.614;2022-12-18T03:32:48;13.20;63.40
17495;DHT22;8864;51.970;4.614;2022-12-18T03:35:22;13.20;63.30
17495;DHT22;8864;51.970;4.614;2022-12-18T03:37:51;13.20;63.30
17495;DHT22;8864;51.970;4.614;2022-12-18T03:40:19;13.20;63.30
17495;DHT22;8864;51.970;4.614;2022-12-18T03:42:51;13.20;63.30
17495;DHT22;8864;51.970;4.614;2022-12-18T03:45:26;13.20;63.30
17495;DHT22;8864;51.970;4.614;2022-12-18T03:47:59;13.20;63.30
17495;DHT22;8864;51.970;4.614;2022-12-18T03:50:36;13.20;63.30
17495;DHT22;8864;51.970;4.614;2022-12-18T03:53:14;13.20;63.30
17495;DHT22;8864;51.970;4.614;2022-12-18T03:55:44;13.20;63.30
17495;DHT22;8864;51.970;4.614;2022-12-18T03:58:16;13.10;63.10
17495;DHT22;8864;51.970;4.614;2022-12-18T04:00:44;13.10;63.10
17495;DHT22;8864;51.970;4.614;2022-12-18T04:03:13;13.20;63.00
17495;DHT22;8864;51.970;4.614;2022-12-18T04:05:41;13.10;62.90
17495;DHT22;8864;51.970;4.614;2022-12-18T04:08:08;13.10;62.80
17495;DHT22;8864;51.970;4.614;2022-12-18T04:10:35;13.10;62.90
17495;DHT22;8864;51.970;4.614;2022-12-18T04:13:02;13.10;62.80
17495;DHT22;8864;51.970;4.614;2022-12-18T04:15:32;13.10;62.80
17495;DHT22;8864;51.970;4.614;2022-12-18T04:18:01;13.10;62.70
17495;DHT22;8864;51.970;4.614;2022-12-18T04:20:28;13.10;62.60
17495;DHT22;8864;51.970;4.614;2022-12-18T04:22:55;13.10;62.60
17495;DHT22;8864;51.970;4.614;2022-12-18T04:25:22;13.10;62.60
17495;DHT22;8864;51.970;4.614;2022-12-18T04:27:49;13.10;62.50
17495;DHT22;8864;51.970;4.614;2022-12-18T04:30:16;13.10;62.50
17495;DHT22;8864;51.970;4.614;2022-12-18T04:32:44;13.10;62.40
17495;DHT22;8864;51.970;4.614;2022-12-18T04:35:11;13.10;62.30
17495;DHT22;8864;51.970;4.614;2022-12-18T04:37:38;13.10;62.20
17495;DHT22;8864;51.970;4.614;2022-12-18T04:40:06;13.10;62.20
17495;DHT22;8864;51.970;4.614;2022-12-18T04:42:33;13.00;62.20
17495;DHT22;8864;51.970;4.614;2022-12-18T04:45:00;13.10;62.10
17495;DHT22;8864;51.970;4.614;2022-12-18T04:47:26;13.10;62.00
17495;DHT22;8864;51.970;4.614;2022-12-18T04:49:55;13.00;62.00
17495;DHT22;8864;51.970;4.614;2022-12-18T04:52:22;13.10;61.90
17495;DHT22;8864;51.970;4.614;2022-12-18T04:54:48;13.00;61.80
17495;DHT22;8864;51.970;4.614;2022-12-18T04:57:15;13.00;61.70
17495;DHT22;8864;51.970;4.614;2022-12-18T04:59:43;13.00;62.50
17495;DHT22;8864;51.970;4.614;2022-12-18T05:02:10;13.00;61.70
17495;DHT22;8864;51.970;4.614;2022-12-18T05:04:37;13.00;61.60
17495;DHT22;8864;51.970;4.614;2022-12-18T05:07:05;13.00;61.60
17495;DHT22;8864;51.970;4.614;2022-12-18T05:09:32;13.00;61.60
17495;DHT22;8864;51.970;4.614;2022-12-18T05:11:59;13.00;61.60
17495;DHT22;8864;51.970;4.614;2022-12-18T05:14:26;13.00;61.50
17495;DHT22;8864;51.970;4.614;2022-12-18T05:16:54;13.00;61.60
17495;DHT22;8864;51.970;4.614;2022-12-18T05:19:21;13.00;61.60
17495;DHT22;8864;51.970;4.614;2022-12-18T05:21:48;13.00;61.50
17495;DHT22;8864;51.970;4.614;2022-12-18T05:24:16;13.00;61.50
17495;DHT22;8864;51.970;4.614;2022-12-18T05:26:43;13.00;62.20
17495;DHT22;8864;51.970;4.614;2022-12-18T05:29:10;13.00;61.40
17495;DHT22;8864;51.970;4.614;2022-12-18T05:31:38;13.00;61.40
17495;DHT22;8864;51.970;4.614;2022-12-18T05:34:05;13.00;61.40
17495;DHT22;8864;51.970;4.614;2022-12-18T05:36:32;13.00;61.40
17495;DHT22;8864;51.970;4.614;2022-12-18T05:38:59;13.00;61.40
17495;DHT22;8864;51.970;4.614;2022-12-18T05:41:28;13.00;61.40
17495;DHT22;8864;51.970;4.614;2022-12-18T05:43:55;13.00;61.30
17495;DHT22;8864;51.970;4.614;2022-12-18T05:46:22;13.00;61.30
17495;DHT22;8864;51.970;4.614;2022-12-18T05:48:49;13.00;61.30
17495;DHT22;8864;51.970;4.614;2022-12-18T05:51:18;12.90;61.20
17495;DHT22;8864;51.970;4.614;2022-12-18T05:53:46;12.90;61.10
17495;DHT22;8864;51.970;4.614;2022-12-18T05:56:15;13.00;61.20
17495;DHT22;8864;51.970;4.614;2022-12-18T05:58:43;12.90;61.10
17495;DHT22;8864;51.970;4.614;2022-12-18T06:01:12;13.00;61.20
17495;DHT22;8864;51.970;4.614;2022-12-18T06:03:39;13.00;61.20
17495;DHT22;8864;51.970;4.614;2022-12-18T06:06:13;12.90;61.10
17495;DHT22;8864;51.970;4.614;2022-12-18T06:08:40;12.90;61.10
17495;DHT22;8864;51.970;4.614;2022-12-18T06:11:07;12.90;61.00
17495;DHT22;8864;51.970;4.614;2022-12-18T06:13:34;12.90;61.00
17495;DHT22;8864;51.970;4.614;2022-12-18T06:16:03;12.90;61.00
17495;DHT22;8864;51.970;4.614;2022-12-18T06:18:30;12.90;61.00
17495;DHT22;8864;51.970;4.614;2022-12-18T06:20:58;12.90;61.00
17495;DHT22;8864;51.970;4.614;2022-12-18T06:23:25;12.90;60.90
17495;DHT22;8864;51.970;4.614;2022-12-18T06:25:53;12.90;60.80
17495;DHT22;8864;51.970;4.614;2022-12-18T06:28:19;12.90;60.80
17495;DHT22;8864;51.970;4.614;2022-12-18T06:30:47;12.90;60.80
17495;DHT22;8864;51.970;4.614;2022-12-18T06:33:16;12.90;60.80
17495;DHT22;8864;51.970;4.614;2022-12-18T06:35:43;12.90;60.80
17495;DHT22;8864;51.970;4.614;2022-12-18T06:38:10;12.90;60.80
17495;DHT22;8864;51.970;4.614;2022-12-18T06:40:37;12.90;60.80
17495;DHT22;8864;51.970;4.614;2022-12-18T06:43:05;12.90;60.80
17495;DHT22;8864;51.970;4.614;2022-12-18T06:45:32;12.90;60.80
17495;DHT22;8864;51.970;4.614;2022-12-18T06:47:59;12.90;60.70
17495;DHT22;8864;51.970;4.614;2022-12-18T06:50:27;12.90;60.70
17495;DHT22;8864;51.970;4.614;2022-12-18T06:52:54;12.90;60.60
17495;DHT22;8864;51.970;4.614;2022-12-18T06:55:22;12.90;60.60
17495;DHT22;8864;51.970;4.614;2022-12-18T06:57:49;12.90;60.60
17495;DHT22;8864;51.970;4.614;2022-12-18T07:00:16;12.90;60.60
17495;DHT22;8864;51.970;4.614;2022-12-18T07:02:43;12.90;60.60
17495;DHT22;8864;51.970;4.614;2022-12-18T07:05:10;12.90;60.60
17495;DHT22;8864;51.970;4.614;2022-12-18T07:07:38;12.90;60.60
17495;DHT22;8864;51.970;4.614;2022-12-18T07:10:05;12.90;60.60
17495;DHT22;8864;51.970;4.614;2022-12-18T07:12:32;12.90;60.60
17495;DHT22;8864;51.970;4.614;2022-12-18T07:14:59;12.90;60.50
17495;DHT22;8864;51.970;4.614;2022-12-18T07:17:26;12.90;60.50
17495;DHT22;8864;51.970;4.614;2022-12-18T07:19:53;12.90;60.50
17495;DHT22;8864;51.970;4.614;2022-12-18T07:22:20;12.90;60.50
17495;DHT22;8864;51.970;4.614;2022-12-18T07:24:49;12.90;60.50
17495;DHT22;8864;51.970;4.614;2022-12-18T07:27:16;12.90;60.50
17495;DHT22;8864;51.970;4.614;2022-12-18T07:29:42;12.90;60.50
17495;DHT22;8864;51.970;4.614;2022-12-18T07:32:09;12.90;60.50
17495;DHT22;8864;51.970;4.614;2022-12-18T07:34:36;12.90;60.50
17495;DHT22;8864;51.970;4.614;2022-12-18T07:37:03;12.90;60.50
17495;DHT22;8864;51.970;4.614;2022-12-18T07:39:30;12.90;60.50
17495;DHT22;8864;51.970;4.614;2022-12-18T07:41:59;12.90;60.50
17495;DHT22;8864;51.970;4.614;2022-12-18T07:44:43;12.80;60.40
17495;DHT22;8864;51.970;4.614;2022-12-18T07:47:10;12.80;60.40
17495;DHT22;8864;51.970;4.614;2022-12-18T07:49:37;12.80;60.30
17495;DHT22;8864;51.970;4.614;2022-12-18T07:52:04;12.80;60.30
17495;DHT22;8864;51.970;4.614;2022-12-18T07:54:31;12.80;60.40
17495;DHT22;8864;51.970;4.614;2022-12-18T07:56:59;12.80;60.40
17495;DHT22;8864;51.970;4.614;2022-12-18T07:59:26;12.80;60.40
17495;DHT22;8864;51.970;4.614;2022-12-18T08:01:53;12.80;60.30
17495;DHT22;8864;51.970;4.614;2022-12-18T08:04:20;12.80;60.30
17495;DHT22;8864;51.970;4.614;2022-12-18T08:06:47;12.80;60.30
17495;DHT22;8864;51.970;4.614;2022-12-18T08:09:14;12.80;60.20
17495;DHT22;8864;51.970;4.614;2022-12-18T08:11:41;12.80;60.30
17495;DHT22;8864;51.970;4.614;2022-12-18T08:14:09;12.80;60.30
17495;DHT22;8864;51.970;4.614;2022-12-18T08:16:36;12.80;60.50
17495;DHT22;8864;51.970;4.614;2022-12-18T08:19:03;12.80;60.60
17495;DHT22;8864;51.970;4.614;2022-12-18T08:21:31;12.80;60.60
17495;DHT22;8864;51.970;4.614;2022-12-18T08:23:59;12.80;60.60
17495;DHT22;8864;51.970;4.614;2022-12-18T08:26:28;12.80;60.70
17495;DHT22;8864;51.970;4.614;2022-12-18T08:28:57;12.80;60.70
17495;DHT22;8864;51.970;4.614;2022-12-18T08:31:26;12.90;60.80
17495;DHT22;8864;51.970;4.614;2022-12-18T08:33:54;12.80;60.90
17495;DHT22;8864;51.970;4.614;2022-12-18T08:36:22;12.80;60.90
17495;DHT22;8864;51.970;4.614;2022-12-18T08:38:49;12.80;60.90
17495;DHT22;8864;51.970;4.614;2022-12-18T08:41:17;12.80;61.00
17495;DHT22;8864;51.970;4.614;2022-12-18T08:43:44;12.80;61.00
17495;DHT22;8864;51.970;4.614;2022-12-18T08:46:34;12.90;61.30
17495;DHT22;8864;51.970;4.614;2022-12-18T08:49:02;12.90;61.40
17495;DHT22;8864;51.970;4.614;2022-12-18T08:51:29;12.90;61.40
17495;DHT22;8864;51.970;4.614;2022-12-18T08:53:56;12.90;61.40
17495;DHT22;8864;51.970;4.614;2022-12-18T08:56:23;12.90;61.40
17495;DHT22;8864;51.970;4.614;2022-12-18T08:58:52;12.90;61.40
17495;DHT22;8864;51.970;4.614;2022-12-18T09:01:19;12.90;61.30
17495;DHT22;8864;51.970;4.614;2022-12-18T09:03:48;12.90;61.30
17495;DHT22;8864;51.970;4.614;2022-12-18T09:06:16;12.90;61.40
17495;DHT22;8864;51.970;4.614;2022-12-18T09:08:43;12.90;61.30
17495;DHT22;8864;51.970;4.614;2022-12-18T09:11:14;12.90;61.30
17495;DHT22;8864;51.970;4.614;2022-12-18T09:13:41;12.90;61.30
17495;DHT22;8864;51.970;4.614;2022-12-18T09:16:08;12.90;61.30
17495;DHT22;8864;51.970;4.614;2022-12-18T09:18:36;12.90;61.30
17495;DHT22;8864;51.970;4.614;2022-12-18T09:21:10;12.90;61.30
17495;DHT22;8864;51.970;4.614;2022-12-18T09:23:37;12.90;61.20
17495;DHT22;8864;51.970;4.614;2022-12-18T09:26:04;12.90;61.20
17495;DHT22;8864;51.970;4.614;2022-12-18T09:28:31;12.90;61.20
17495;DHT22;8864;51.970;4.614;2022-12-18T09:30:58;12.90;61.20
17495;DHT22;8864;51.970;4.614;2022-12-18T09:33:25;12.90;61.20
17495;DHT22;8864;51.970;4.614;2022-12-18T09:35:52;12.90;61.30
17495;DHT22;8864;51.970;4.614;2022-12-18T09:38:20;12.90;61.30
17495;DHT22;8864;51.970;4.614;2022-12-18T09:40:50;12.90;61.30
17495;DHT22;8864;51.970;4.614;2022-12-18T09:43:22;13.00;61.30
17495;DHT22;8864;51.970;4.614;2022-12-18T09:45:53;12.90;61.30
17495;DHT22;8864;51.970;4.614;2022-12-18T09:48:26;13.00;61.40
17495;DHT22;8864;51.970;4.614;2022-12-18T09:50:57;13.00;61.30
17495;DHT22;8864;51.970;4.614;2022-12-18T09:53:30;13.00;61.30
17495;DHT22;8864;51.970;4.614;2022-12-18T09:56:00;13.00;61.30
17495;DHT22;8864;51.970;4.614;2022-12-18T09:58:31;13.00;61.40
17495;DHT22;8864;51.970;4.614;2022-12-18T10:01:01;12.90;61.30
17495;DHT22;8864;51.970;4.614;2022-12-18T10:03:28;13.00;61.40
17495;DHT22;8864;51.970;4.614;2022-12-18T10:06:03;13.00;61.70
17495;DHT22;8864;51.970;4.614;2022-12-18T10:08:40;13.00;61.70
17495;DHT22;8864;51.970;4.614;2022-12-18T10:14:09;13.00;61.60
17495;DHT22;8864;51.970;4.614;2022-12-18T10:16:40;13.00;61.60
17495;DHT22;8864;51.970;4.614;2022-12-18T10:19:21;13.00;61.50
17495;DHT22;8864;51.970;4.614;2022-12-18T10:21:56;13.00;61.80
17495;DHT22;8864;51.970;4.614;2022-12-18T10:24:32;13.00;61.70
17495;DHT22;8864;51.970;4.614;2022-12-18T10:27:12;13.00;61.70
17495;DHT22;8864;51.970;4.614;2022-12-18T10:29:41;13.00;61.70
17495;DHT22;8864;51.970;4.614;2022-12-18T10:32:14;13.00;62.80
17495;DHT22;8864;51.970;4.614;2022-12-18T10:34:45;13.00;62.80
17495;DHT22;8864;51.970;4.614;2022-12-18T10:37:16;13.00;62.70
17495;DHT22;8864;51.970;4.614;2022-12-18T10:39:46;13.00;62.50
17495;DHT22;8864;51.970;4.614;2022-12-18T10:42:18;13.00;62.50
17495;DHT22;8864;51.970;4.614;2022-12-18T10:44:45;13.00;62.40
17495;DHT22;8864;51.970;4.614;2022-12-18T10:47:15;13.00;62.30
17495;DHT22;8864;51.970;4.614;2022-12-18T10:49:49;13.00;62.30
17495;DHT22;8864;51.970;4.614;2022-12-18T10:52:18;13.10;62.40
17495;DHT22;8864;51.970;4.614;2022-12-18T10:54:50;13.00;62.30
17495;DHT22;8864;51.970;4.614;2022-12-18T10:57:35;13.00;62.30
17495;DHT22;8864;51.970;4.614;2022-12-18T11:00:22;13.10;62.50
17495;DHT22;8864;51.970;4.614;2022-12-18T11:02:50;13.10;62.70
17495;DHT22;8864;51.970;4.614;2022-12-18T11:05:29;13.10;62.70
17495;DHT22;8864;51.970;4.614;2022-12-18T11:07:57;13.10;62.60
17495;DHT22;8864;51.970;4.614;2022-12-18T11:10:30;13.10;62.50
17495;DHT22;8864;51.970;4.614;2022-12-18T11:13:10;13.10;62.50
17495;DHT22;8864;51.970;4.614;2022-12-18T11:15:37;13.10;63.20
17495;DHT22;8864;51.970;4.614;2022-12-18T11:18:19;13.10;62.30
17495;DHT22;8864;51.970;4.614;2022-12-18T11:20:51;13.10;62.30
17495;DHT22;8864;51.970;4.614;2022-12-18T11:23:21;13.10;62.30
17495;DHT22;8864;51.970;4.614;2022-12-18T11:25:56;13.10;62.30
17495;DHT22;8864;51.970;4.614;2022-12-18T11:28:36;13.10;62.30
17495;DHT22;8864;51.970;4.614;2022-12-18T11:31:19;13.10;62.20
17495;DHT22;8864;51.970;4.614;2022-12-18T11:33:50;13.10;62.20
17495;DHT22;8864;51.970;4.614;2022-12-18T11:36:21;13.10;62.20
17495;DHT22;8864;51.970;4.614;2022-12-18T11:38:49;13.10;62.10
17495;DHT22;8864;51.970;4.614;2022-12-18T11:41:25;13.10;62.10
17495;DHT22;8864;51.970;4.614;2022-12-18T11:44:18;13.10;62.00
17495;DHT22;8864;51.970;4.614;2022-12-18T11:46:52;13.10;62.00
17495;DHT22;8864;51.970;4.614;2022-12-18T11:49:25;13.10;62.00
17495;DHT22;8864;51.970;4.614;2022-12-18T11:52:00;13.10;62.00
17495;DHT22;8864;51.970;4.614;2022-12-18T11:54:29;13.10;62.00
17495;DHT22;8864;51.970;4.614;2022-12-18T11:57:04;13.10;62.00
17495;DHT22;8864;51.970;4.614;2022-12-18T11:59:36;13.10;62.00
17495;DHT22;8864;51.970;4.614;2022-12-18T12:02:23;13.10;61.90
17495;DHT22;8864;51.970;4.614;2022-12-18T12:05:08;13.10;61.90
17495;DHT22;8864;51.970;4.614;2022-12-18T12:07:42;13.10;62.00
17495;DHT22;8864;51.970;4.614;2022-12-18T12:10:24;13.10;62.00
17495;DHT22;8864;51.970;4.614;2022-12-18T12:13:06;13.10;62.10
17495;DHT22;8864;51.970;4.614;2022-12-18T12:15:42;13.10;62.20
17495;DHT22;8864;51.970;4.614;2022-12-18T12:18:23;13.10;62.30
17495;DHT22;8864;51.970;4.614;2022-12-18T12:21:01;13.10;62.30
17495;DHT22;8864;51.970;4.614;2022-12-18T12:23:37;13.10;62.30
17495;DHT22;8864;51.970;4.614;2022-12-18T12:26:08;13.10;62.30
17495;DHT22;8864;51.970;4.614;2022-12-18T12:28:58;13.10;62.30
17495;DHT22;8864;51.970;4.614;2022-12-18T12:31:39;13.10;62.40
17495;DHT22;8864;51.970;4.614;2022-12-18T12:34:16;13.10;62.50
17495;DHT22;8864;51.970;4.614;2022-12-18T12:36:54;13.10;62.50
17495;DHT22;8864;51.970;4.614;2022-12-18T12:39:27;13.10;62.50
17495;DHT22;8864;51.970;4.614;2022-12-18T12:41:55;13.10;62.60
17495;DHT22;8864;51.970;4.614;2022-12-18T12:44:44;13.10;62.60
17495;DHT22;8864;51.970;4.614;2022-12-18T12:47:17;13.10;62.60
17495;DHT22;8864;51.970;4.614;2022-12-18T12:49:47;13.10;62.70
17495;DHT22;8864;51.970;4.614;2022-12-18T12:52:17;13.10;62.80
17495;DHT22;8864;51.970;4.614;2022-12-18T12:54:49;13.10;62.80
17495;DHT22;8864;51.970;4.614;2022-12-18T12:57:22;13.10;62.80
17495;DHT22;8864;51.970;4.614;2022-12-18T12:59:57;13.10;62.90
17495;DHT22;8864;51.970;4.614;2022-12-18T13:02:31;13.10;62.90
17495;DHT22;8864;51.970;4.614;2022-12-18T13:05:03;13.10;62.80
17495;DHT22;8864;51.970;4.614;2022-12-18T13:07:40;13.10;62.80
17495;DHT22;8864;51.970;4.614;2022-12-18T13:10:14;13.10;62.80
17495;DHT22;8864;51.970;4.614;2022-12-18T13:12:52;13.10;62.90
17495;DHT22;8864;51.970;4.614;2022-12-18T13:15:25;13.10;63.00
17495;DHT22;8864;51.970;4.614;2022-12-18T13:18:13;13.10;63.00
17495;DHT22;8864;51.970;4.614;2022-12-18T13:20:43;13.10;64.00
17495;DHT22;8864;51.970;4.614;2022-12-18T13:23:27;13.10;63.90
17495;DHT22;8864;51.970;4.614;2022-12-18T13:25:55;13.10;64.10
17495;DHT22;8864;51.970;4.614;2022-12-18T13:28:26;13.10;63.90
17495;DHT22;8864;51.970;4.614;2022-12-18T13:31:14;13.10;63.80
17495;DHT22;8864;51.970;4.614;2022-12-18T13:33:43;13.10;63.80
17495;DHT22;8864;51.970;4.614;2022-12-18T13:39:31;13.10;63.80
17495;DHT22;8864;51.970;4.614;2022-12-18T13:42:37;13.10;63.90
17495;DHT22;8864;51.970;4.614;2022-12-18T13:45:43;13.10;64.00
17495;DHT22;8864;51.970;4.614;2022-12-18T13:48:23;13.10;64.00
17495;DHT22;8864;51.970;4.614;2022-12-18T13:50:59;13.10;64.20
17495;DHT22;8864;51.970;4.614;2022-12-18T13:53:30;13.10;64.30
17495;DHT22;8864;51.970;4.614;2022-12-18T13:55:59;13.10;64.30
17495;DHT22;8864;51.970;4.614;2022-12-18T13:58:26;13.10;64.40
17495;DHT22;8864;51.970;4.614;2022-12-18T14:00:53;13.10;64.50
17495;DHT22;8864;51.970;4.614;2022-12-18T14:03:24;13.10;64.50
17495;DHT22;8864;51.970;4.614;2022-12-18T14:05:55;13.10;64.50
17495;DHT22;8864;51.970;4.614;2022-12-18T14:08:23;13.10;64.50
17495;DHT22;8864;51.970;4.614;2022-12-18T14:10:52;13.10;64.90
17495;DHT22;8864;51.970;4.614;2022-12-18T14:13:24;13.10;65.20
17495;DHT22;8864;51.970;4.614;2022-12-18T14:15:51;13.10;64.80
17495;DHT22;8864;51.970;4.614;2022-12-18T14:18:25;13.10;64.80
17495;DHT22;8864;51.970;4.614;2022-12-18T14:20:56;13.10;65.00
17495;DHT22;8864;51.970;4.614;2022-12-18T14:23:32;13.10;65.00
17495;DHT22;8864;51.970;4.614;2022-12-18T14:26:00;13.10;65.00
17495;DHT22;8864;51.970;4.614;2022-12-18T14:28:27;13.10;65.00
17495;DHT22;8864;51.970;4.614;2022-12-18T14:30:54;13.10;65.00
17495;DHT22;8864;51.970;4.614;2022-12-18T14:33:24;13.10;65.00
17495;DHT22;8864;51.970;4.614;2022-12-18T14:35:57;13.10;65.00
17495;DHT22;8864;51.970;4.614;2022-12-18T14:38:28;13.10;65.10
17495;DHT22;8864;51.970;4.614;2022-12-18T14:40:57;13.10;65.00
17495;DHT22;8864;51.970;4.614;2022-12-18T14:43:25;13.10;65.00
17495;DHT22;8864;51.970;4.614;2022-12-18T14:45:52;13.10;65.00
17495;DHT22;8864;51.970;4.614;2022-12-18T14:48:24;13.10;65.00
17495;DHT22;8864;51.970;4.614;2022-12-18T14:51:00;13.10;65.00
17495;DHT22;8864;51.970;4.614;2022-12-18T14:53:36;13.10;65.00
17495;DHT22;8864;51.970;4.614;2022-12-18T14:56:14;13.10;65.00
17495;DHT22;8864;51.970;4.614;2022-12-18T14:58:48;13.10;65.00
17495;DHT22;8864;51.970;4.614;2022-12-18T15:01:20;13.10;65.00
17495;DHT22;8864;51.970;4.614;2022-12-18T15:03:51;13.10;65.00
17495;DHT22;8864;51.970;4.614;2022-12-18T15:06:27;13.10;65.10
17495;DHT22;8864;51.970;4.614;2022-12-18T15:08:55;13.10;65.00
17495;DHT22;8864;51.970;4.614;2022-12-18T15:11:28;13.10;65.00
17495;DHT22;8864;51.970;4.614;2022-12-18T15:13:57;13.10;65.00
17495;DHT22;8864;51.970;4.614;2022-12-18T15:16:24;13.10;65.00
17495;DHT22;8864;51.970;4.614;2022-12-18T15:18:53;13.10;65.00
17495;DHT22;8864;51.970;4.614;2022-12-18T15:21:21;13.10;65.00
17495;DHT22;8864;51.970;4.614;2022-12-18T15:23:49;13.10;65.00
17495;DHT22;8864;51.970;4.614;2022-12-18T15:26:18;13.10;65.00
17495;DHT22;8864;51.970;4.614;2022-12-18T15:28:48;13.10;65.00
17495;DHT22;8864;51.970;4.614;2022-12-18T15:31:24;13.10;65.00
17495;DHT22;8864;51.970;4.614;2022-12-18T15:34:13;13.10;65.20
17495;DHT22;8864;51.970;4.614;2022-12-18T15:36:40;13.10;65.20
17495;DHT22;8864;51.970;4.614;2022-12-18T15:39:11;13.10;65.20
17495;DHT22;8864;51.970;4.614;2022-12-18T15:41:39;13.10;65.20
17495;DHT22;8864;51.970;4.614;2022-12-18T15:44:27;13.10;65.20
17495;DHT22;8864;51.970;4.614;2022-12-18T15:46:52;13.00;65.10
17495;DHT22;8864;51.970;4.614;2022-12-18T15:49:21;13.10;65.10
17495;DHT22;8864;51.970;4.614;2022-12-18T15:51:51;13.10;65.10
17495;DHT22;8864;51.970;4.614;2022-12-18T15:54:19;13.10;65.10
17495;DHT22;8864;51.970;4.614;2022-12-18T15:57:09;13.10;65.10
17495;DHT22;8864;51.970;4.614;2022-12-18T15:59:50;13.10;65.10
17495;DHT22;8864;51.970;4.614;2022-12-18T16:02:18;13.10;65.10
17495;DHT22;8864;51.970;4.614;2022-12-18T16:04:47;13.10;65.20
17495;DHT22;8864;51.970;4.614;2022-12-18T16:07:14;13.20;64.80
17495;DHT22;8864;51.970;4.614;2022-12-18T16:09:41;13.20;64.60
17495;DHT22;8864;51.970;4.614;2022-12-18T16:12:15;13.20;64.60
17495;DHT22;8864;51.970;4.614;2022-12-18T16:14:43;13.20;64.60